Time;durP1;ratioP1;P1;durP2;ratioP2;P2;SDS_P1;SDS_P2;PMS_P1;PMS_P2;Temp;Humidity;BMP_temperature;BMP_pressure;BME280_temperature;BME280_humidity;BME280_pressure;Samples;Min_cycle;Max_cycle;Signal;HPM_P1;HPM_P2
2021/05/26 00:00:58;;;;;;;3.28;1.40;;;18.40;94.30;;;;;;5037163;28;20022;-68
2021/05/26 00:03:24;;;;;;;3.85;1.38;;;18.40;94.30;;;;;;5036940;28;20033;-68
2021/05/26 00:05:50;;;;;;;4.50;1.63;;;18.30;94.20;;;;;;5037714;28;20435;-68
2021/05/26 00:08:29;;;;;;;3.15;1.20;;;18.30;94.20;;;;;;5037483;28;20025;-68
2021/05/26 00:10:56;;;;;;;3.42;1.40;;;18.30;94.50;;;;;;5037433;28;20377;-68
2021/05/26 00:13:22;;;;;;;2.78;1.02;;;18.30;94.20;;;;;;5037040;28;20053;-68
2021/05/26 00:15:48;;;;;;;3.45;1.40;;;18.30;94.30;;;;;;5037674;28;20484;-68
2021/05/26 00:18:14;;;;;;;2.38;1.00;;;18.20;94.20;;;;;;5034148;28;20473;-68
2021/05/26 00:20:40;;;;;;;3.17;1.35;;;18.20;94.20;;;;;;5033847;28;20032;-68
2021/05/26 00:23:06;;;;;;;3.78;1.30;;;18.20;94.20;;;;;;5034097;28;20037;-68
2021/05/26 00:25:32;;;;;;;2.35;1.00;;;18.20;94.20;;;;;;5033980;28;20037;-68
2021/05/26 00:27:58;;;;;;;3.95;1.10;;;18.20;94.20;;;;;;5034013;28;20029;-68
2021/05/26 00:30:27;;;;;;;2.50;0.90;;;18.10;94.30;;;;;;5033432;28;20025;-68
2021/05/26 00:32:54;;;;;;;2.80;1.00;;;18.10;94.20;;;;;;5032909;28;20040;-68
2021/05/26 00:35:20;;;;;;;3.50;1.13;;;18.10;94.20;;;;;;5034274;28;20037;-68
2021/05/26 00:37:46;;;;;;;3.63;1.38;;;18.10;94.20;;;;;;5034311;28;20029;-68
2021/05/26 00:40:12;;;;;;;3.72;1.38;;;18.10;94.20;;;;;;5033254;28;20501;-68
2021/05/26 00:42:38;;;;;;;2.85;1.20;;;18.00;94.20;;;;;;5033259;28;20099;-68
2021/05/26 00:45:04;;;;;;;2.88;1.00;;;18.10;94.20;;;;;;5034055;28;20029;-68
2021/05/26 00:47:40;;;;;;;2.85;1.40;;;18.10;94.20;;;;;;5033396;28;20033;-69
2021/05/26 00:50:09;;;;;;;2.72;1.17;;;18.00;94.20;;;;;;5033667;28;20057;-68
2021/05/26 00:52:35;;;;;;;2.95;1.23;;;18.00;94.20;;;;;;5033449;28;20107;-68
2021/05/26 00:55:01;;;;;;;2.80;1.00;;;18.00;94.20;;;;;;5033811;28;20133;-68
2021/05/26 00:57:27;;;;;;;3.00;1.27;;;18.00;94.20;;;;;;5033385;28;20448;-68
2021/05/26 00:59:53;;;;;;;3.13;1.02;;;18.00;94.20;;;;;;5033370;28;20428;-68
2021/05/26 01:02:18;;;;;;;2.22;0.98;;;17.90;94.20;;;;;;5033713;28;20035;-68
2021/05/26 01:04:44;;;;;;;3.22;1.05;;;17.90;94.10;;;;;;5033203;28;20057;-68
2021/05/26 01:07:10;;;;;;;2.47;1.00;;;17.90;94.20;;;;;;5033446;28;20120;-68
2021/05/26 01:09:36;;;;;;;2.08;1.00;;;17.90;94.10;;;;;;5033238;28;20029;-68
2021/05/26 01:12:03;;;;;;;3.00;1.00;;;17.90;94.10;;;;;;5033320;28;20091;-68
2021/05/26 01:14:28;;;;;;;2.75;1.00;;;17.90;94.10;;;;;;5033102;28;20080;-68
2021/05/26 01:16:54;;;;;;;3.00;1.10;;;17.90;94.20;;;;;;5032890;28;20026;-68
2021/05/26 01:19:19;;;;;;;3.20;1.15;;;17.80;94.20;;;;;;5033430;28;20071;-69
2021/05/26 01:21:50;;;;;;;2.00;0.98;;;17.80;94.20;;;;;;5032592;28;20389;-68
2021/05/26 01:24:16;;;;;;;2.08;0.90;;;17.80;94.20;;;;;;5033486;28;20053;-68
2021/05/26 01:26:46;;;;;;;2.75;1.10;;;17.80;94.20;;;;;;5033023;28;20045;-68
2021/05/26 01:29:14;;;;;;;2.15;0.90;;;17.80;94.20;;;;;;5032912;28;20053;-68
2021/05/26 01:31:39;;;;;;;2.25;0.93;;;17.80;94.20;;;;;;5031965;28;20481;-68
2021/05/26 01:34:05;;;;;;;2.63;0.95;;;17.80;94.50;;;;;;5032690;28;20025;-68
2021/05/26 01:36:34;;;;;;;2.30;1.05;;;17.70;94.20;;;;;;5032784;28;20036;-69
2021/05/26 01:39:00;;;;;;;1.75;0.85;;;17.70;94.10;;;;;;5032633;28;20411;-68
2021/05/26 01:41:26;;;;;;;2.35;1.00;;;17.70;94.20;;;;;;5032456;28;20030;-68
2021/05/26 01:43:54;;;;;;;2.72;1.05;;;17.70;94.20;;;;;;5032754;28;20496;-69
2021/05/26 01:46:21;;;;;;;2.47;1.00;;;17.70;94.20;;;;;;5033078;28;20037;-69
2021/05/26 01:48:48;;;;;;;4.10;1.30;;;17.70;94.20;;;;;;5032829;28;20025;-67
2021/05/26 01:51:14;;;;;;;2.05;0.90;;;17.70;94.10;;;;;;5032512;28;20064;-68
2021/05/26 01:53:40;;;;;;;1.63;0.75;;;17.70;94.10;;;;;;5032297;28;20469;-68
2021/05/26 01:56:23;;;;;;;2.38;1.00;;;17.70;94.10;;;;;;5032406;28;20033;-68
2021/05/26 01:58:54;;;;;;;1.48;0.73;;;17.60;94.10;;;;;;5032769;28;20033;-68
2021/05/26 02:01:22;;;;;;;2.05;0.90;;;17.60;94.10;;;;;;5032075;28;20425;-67
2021/05/26 02:03:48;;;;;;;2.42;0.85;;;17.60;94.20;;;;;;5032506;28;20037;-67
2021/05/26 02:06:16;;;;;;;1.90;0.85;;;17.60;94.20;;;;;;5032285;28;20029;-68
2021/05/26 02:08:43;;;;;;;1.83;0.90;;;17.60;94.50;;;;;;5032153;28;20473;-67
2021/05/26 02:14:06;;;;;;;2.00;0.80;;;17.60;94.20;;;;;;5032098;28;20040;-67
2021/05/26 02:16:34;;;;;;;2.33;1.05;;;17.50;94.50;;;;;;5031685;28;20025;-67
2021/05/26 02:18:59;;;;;;;2.63;0.98;;;17.50;94.20;;;;;;5031533;28;20552;-67
2021/05/26 02:21:25;;;;;;;2.95;1.13;;;17.50;94.20;;;;;;5031382;28;20029;-67
2021/05/26 02:23:51;;;;;;;2.40;1.00;;;17.50;94.20;;;;;;5031953;28;20036;-67
2021/05/26 02:26:17;;;;;;;1.90;1.00;;;17.50;94.20;;;;;;5032250;28;20025;-67
2021/05/26 02:28:43;;;;;;;1.98;0.90;;;17.50;94.20;;;;;;5031613;28;20033;-67
2021/05/26 02:31:09;;;;;;;2.22;0.85;;;17.50;94.10;;;;;;5031478;28;20029;-66
2021/05/26 02:33:36;;;;;;;1.63;0.80;;;17.50;94.20;;;;;;5031319;28;20022;-67
2021/05/26 02:36:02;;;;;;;1.58;0.73;;;17.50;94.10;;;;;;5029977;28;20362;-67
2021/05/26 02:38:28;;;;;;;2.03;0.90;;;17.50;94.10;;;;;;5030690;28;20033;-67
2021/05/26 02:40:54;;;;;;;1.88;0.85;;;17.40;94.40;;;;;;5031199;28;20025;-66
2021/05/26 02:43:19;;;;;;;1.83;0.75;;;17.40;94.10;;;;;;5031737;28;20477;-67
2021/05/26 02:45:45;;;;;;;2.42;0.90;;;17.40;94.10;;;;;;5031275;28;20449;-67
2021/05/26 02:48:11;;;;;;;2.55;1.00;;;17.40;94.20;;;;;;5031628;28;20036;-66
2021/05/26 02:50:36;;;;;;;2.55;1.00;;;17.40;94.20;;;;;;5031290;28;20044;-66
2021/05/26 02:53:02;;;;;;;1.20;0.70;;;17.40;94.10;;;;;;5031252;28;20025;-66
2021/05/26 02:55:28;;;;;;;1.85;0.95;;;17.40;94.20;;;;;;5031266;28;20025;-66
2021/05/26 02:57:54;;;;;;;2.17;0.90;;;17.30;94.10;;;;;;5031348;28;20036;-65
2021/05/26 03:00:21;;;;;;;1.75;0.90;;;17.40;94.20;;;;;;5030452;28;20425;-65
2021/05/26 03:02:47;;;;;;;1.52;0.68;;;17.40;94.20;;;;;;5031809;28;20037;-65
2021/05/26 03:05:15;;;;;;;1.52;0.70;;;17.30;94.20;;;;;;5031029;28;20029;-65
2021/05/26 03:07:42;;;;;;;1.85;0.80;;;17.30;94.20;;;;;;5031205;28;20078;-65
2021/05/26 03:10:09;;;;;;;2.28;1.05;;;17.30;94.20;;;;;;5031384;28;20025;-65
2021/05/26 03:12:35;;;;;;;1.63;0.80;;;17.30;94.20;;;;;;5031065;28;20473;-65
2021/05/26 03:15:01;;;;;;;1.63;0.82;;;17.30;94.20;;;;;;5031464;28;20025;-65
2021/05/26 03:17:28;;;;;;;1.17;0.77;;;17.30;94.20;;;;;;5031186;28;20018;-65
2021/05/26 03:19:55;;;;;;;1.42;0.70;;;17.30;94.20;;;;;;5031251;28;20029;-65
2021/05/26 03:22:25;;;;;;;2.65;1.05;;;17.30;94.20;;;;;;5030956;28;20511;-66
2021/05/26 03:24:51;;;;;;;1.52;0.80;;;17.30;94.20;;;;;;5030441;28;20363;-65
2021/05/26 03:27:19;;;;;;;1.88;0.90;;;17.30;94.20;;;;;;5030877;28;20389;-65
2021/05/26 03:29:45;;;;;;;2.10;0.90;;;17.30;94.20;;;;;;5031360;28;20029;-65
2021/05/26 03:32:11;;;;;;;1.35;0.70;;;17.20;94.20;;;;;;5030992;28;20368;-65
2021/05/26 03:34:37;;;;;;;2.33;0.70;;;17.20;94.20;;;;;;5030837;28;20029;-65
2021/05/26 03:37:02;;;;;;;1.67;0.90;;;17.20;94.20;;;;;;5030713;28;20029;-66
2021/05/26 03:39:28;;;;;;;1.45;0.63;;;17.20;94.20;;;;;;5030407;28;20374;-66
2021/05/26 03:41:54;;;;;;;1.05;0.70;;;17.20;94.20;;;;;;5031143;28;20033;-65
2021/05/26 03:44:19;;;;;;;1.80;0.70;;;17.20;94.20;;;;;;5031226;28;20063;-65
2021/05/26 03:46:45;;;;;;;1.48;0.60;;;17.20;94.50;;;;;;5031038;28;20022;-65
2021/05/26 03:49:11;;;;;;;1.52;0.57;;;17.20;94.20;;;;;;5030488;28;20416;-65
2021/05/26 03:51:37;;;;;;;1.63;0.77;;;17.20;94.20;;;;;;5030853;28;20033;-65
2021/05/26 03:54:03;;;;;;;1.73;0.90;;;17.20;94.20;;;;;;5033849;28;20500;-65
2021/05/26 03:56:28;;;;;;;1.98;0.80;;;17.10;94.20;;;;;;5034389;28;20045;-66
2021/05/26 03:58:56;;;;;;;1.65;0.70;;;17.10;94.20;;;;;;5034639;28;20025;-65
2021/05/26 04:01:22;;;;;;;1.00;0.80;;;17.10;94.20;;;;;;5034799;28;20036;-65
2021/05/26 04:03:47;;;;;;;0.70;0.50;;;17.10;94.20;;;;;;5034668;28;20440;-65
2021/05/26 04:06:13;;;;;;;1.50;0.70;;;17.10;94.20;;;;;;5034198;28;20032;-65
2021/05/26 04:08:39;;;;;;;1.17;0.60;;;17.10;94.20;;;;;;5034358;28;20121;-67
2021/05/26 04:11:04;;;;;;;1.00;0.70;;;17.10;94.20;;;;;;5034380;28;20031;-67
2021/05/26 04:13:30;;;;;;;0.85;0.50;;;17.10;94.20;;;;;;5034221;28;20021;-66
2021/05/26 04:15:56;;;;;;;1.55;0.80;;;17.10;94.20;;;;;;5034436;28;20022;-66
2021/05/26 04:18:21;;;;;;;1.33;0.60;;;17.10;94.20;;;;;;5034343;28;20021;-66
2021/05/26 04:20:47;;;;;;;1.58;0.82;;;17.00;94.20;;;;;;5034477;28;20029;-66
2021/05/26 04:23:13;;;;;;;2.05;0.70;;;17.10;94.20;;;;;;5033781;28;20478;-66
2021/05/26 04:25:38;;;;;;;1.30;0.70;;;17.00;94.20;;;;;;5034303;28;20033;-66
2021/05/26 04:28:07;;;;;;;2.58;0.90;;;17.00;94.60;;;;;;5034333;28;20429;-66
2021/05/26 04:30:33;;;;;;;1.33;0.60;;;17.00;94.20;;;;;;5033961;28;20025;-66
2021/05/26 04:32:59;;;;;;;2.50;0.90;;;17.00;94.20;;;;;;5034060;28;20063;-66
2021/05/26 04:35:25;;;;;;;0.90;0.60;;;17.00;94.20;;;;;;5033294;28;20029;-66
2021/05/26 04:37:50;;;;;;;1.45;0.70;;;17.00;94.20;;;;;;5031634;28;20053;-66
2021/05/26 04:40:16;;;;;;;1.95;0.80;;;17.00;94.20;;;;;;5033414;28;20021;-67
2021/05/26 04:42:42;;;;;;;1.60;0.70;;;17.00;94.20;;;;;;5033732;28;20460;-66
2021/05/26 04:45:08;;;;;;;1.85;0.77;;;17.00;94.30;;;;;;5033159;28;20022;-66
2021/05/26 04:47:34;;;;;;;1.58;0.60;;;17.00;94.40;;;;;;5033472;28;20044;-66
2021/05/26 04:49:59;;;;;;;1.27;0.70;;;17.00;94.40;;;;;;5033577;28;20033;-66
2021/05/26 04:52:26;;;;;;;0.80;0.65;;;17.10;94.40;;;;;;5033336;28;20096;-66
2021/05/26 04:54:52;;;;;;;1.50;0.70;;;17.10;94.40;;;;;;5033907;28;20025;-66
2021/05/26 04:57:17;;;;;;;1.35;0.60;;;17.10;94.40;;;;;;5033290;28;20026;-66
2021/05/26 04:59:43;;;;;;;1.70;0.70;;;17.10;94.30;;;;;;5033605;28;20492;-66
2021/05/26 05:02:08;;;;;;;1.30;0.70;;;17.10;94.30;;;;;;5032438;28;20045;-66
2021/05/26 05:04:34;;;;;;;2.58;0.98;;;17.10;94.40;;;;;;5033058;28;20018;-66
2021/05/26 05:06:59;;;;;;;2.03;0.60;;;17.00;94.40;;;;;;5033207;28;20029;-66
2021/05/26 05:09:25;;;;;;;1.95;0.70;;;17.00;94.30;;;;;;5031999;28;20132;-66
2021/05/26 05:11:51;;;;;;;1.35;0.90;;;17.10;94.30;;;;;;5032754;28;20026;-66
2021/05/26 05:14:16;;;;;;;2.58;0.80;;;17.00;94.30;;;;;;5032538;28;20087;-66
2021/05/26 05:16:42;;;;;;;1.60;0.68;;;17.10;94.30;;;;;;5032968;28;20056;-66
2021/05/26 05:19:08;;;;;;;1.58;0.82;;;17.00;94.60;;;;;;5032156;28;20060;-66
2021/05/26 05:21:33;;;;;;;1.63;0.70;;;17.00;94.50;;;;;;5031724;28;20033;-67
2021/05/26 05:23:59;;;;;;;1.17;0.80;;;17.00;94.20;;;;;;5032565;28;20044;-67
2021/05/26 05:26:25;;;;;;;1.48;0.68;;;17.00;94.30;;;;;;5032394;28;20084;-66
2021/05/26 05:28:50;;;;;;;0.80;0.50;;;17.00;94.30;;;;;;5032605;28;20037;-66
2021/05/26 05:31:16;;;;;;;1.67;0.70;;;17.00;94.30;;;;;;5032500;28;20033;-66
2021/05/26 05:33:41;;;;;;;1.30;0.60;;;17.00;94.70;;;;;;5032599;28;20037;-66
2021/05/26 05:36:09;;;;;;;1.10;0.60;;;17.00;94.40;;;;;;5031110;28;20148;-66
2021/05/26 05:38:35;;;;;;;1.35;0.60;;;17.00;94.40;;;;;;5032987;28;20038;-66
2021/05/26 05:41:01;;;;;;;1.83;0.68;;;17.00;94.40;;;;;;5032764;28;20022;-66
2021/05/26 05:43:27;;;;;;;1.75;1.00;;;17.00;94.30;;;;;;5030958;28;20180;-66
2021/05/26 05:45:52;;;;;;;1.33;0.80;;;17.00;94.30;;;;;;5032873;28;20024;-66
2021/05/26 05:48:18;;;;;;;1.70;1.00;;;17.00;94.40;;;;;;5032178;28;20034;-66
2021/05/26 05:50:44;;;;;;;1.13;0.70;;;17.00;94.30;;;;;;5032087;28;20413;-67
2021/05/26 05:53:09;;;;;;;1.20;0.80;;;17.00;94.30;;;;;;5032131;28;20120;-65
2021/05/26 05:55:35;;;;;;;1.77;0.93;;;17.00;94.40;;;;;;5032037;28;20064;-67
2021/05/26 05:58:03;;;;;;;0.90;0.50;;;17.00;94.50;;;;;;5031076;28;20493;-66
2021/05/26 06:00:29;;;;;;;1.77;0.90;;;17.00;94.50;;;;;;5031656;28;20072;-65
2021/05/26 06:02:55;;;;;;;1.25;0.68;;;17.00;94.40;;;;;;5032170;28;20083;-65
2021/05/26 06:05:20;;;;;;;0.93;0.70;;;17.00;94.50;;;;;;5031535;28;20025;-65
2021/05/26 06:07:46;;;;;;;1.20;0.70;;;17.10;94.60;;;;;;5032162;28;20046;-65
2021/05/26 06:10:12;;;;;;;1.52;0.68;;;17.10;95.00;;;;;;5031126;28;20028;-65
2021/05/26 06:12:38;;;;;;;1.25;0.60;;;17.10;94.70;;;;;;5031532;28;20021;-66
2021/05/26 06:15:05;;;;;;;1.05;0.75;;;17.10;94.60;;;;;;5030533;28;20469;-65
2021/05/26 06:17:30;;;;;;;2.35;0.68;;;17.00;94.60;;;;;;5031642;28;20397;-65
2021/05/26 06:19:56;;;;;;;2.40;0.65;;;17.10;94.70;;;;;;5032181;28;20021;-66
2021/05/26 06:22:21;;;;;;;3.17;0.75;;;17.10;94.70;;;;;;5031489;28;20128;-66
2021/05/26 06:24:47;;;;;;;1.42;0.98;;;17.10;94.90;;;;;;5030759;28;20469;-66
2021/05/26 06:27:13;;;;;;;1.92;0.98;;;17.10;95.10;;;;;;5031006;28;20056;-65
2021/05/26 06:29:39;;;;;;;2.20;1.02;;;17.10;95.10;;;;;;5030220;28;20029;-67
2021/05/26 06:32:05;;;;;;;2.92;1.23;;;17.10;95.20;;;;;;5031543;28;20461;-66
2021/05/26 06:34:31;;;;;;;2.25;1.20;;;17.10;95.10;;;;;;5031230;28;20073;-67
2021/05/26 06:36:56;;;;;;;2.97;1.08;;;17.20;95.30;;;;;;5031860;28;20029;-68
2021/05/26 06:39:22;;;;;;;2.17;1.00;;;17.20;95.20;;;;;;5031250;28;20475;-70
2021/05/26 06:41:48;;;;;;;3.22;1.70;;;17.20;95.10;;;;;;5030312;28;20033;-66
2021/05/26 06:44:13;;;;;;;4.13;1.05;;;17.30;95.20;;;;;;5028845;28;20030;-66
2021/05/26 06:46:39;;;;;;;2.30;1.55;;;17.30;95.10;;;;;;5030782;28;20037;-67
2021/05/26 06:49:06;;;;;;;2.80;1.30;;;17.30;95.20;;;;;;5031240;28;20057;-66
2021/05/26 06:51:32;;;;;;;3.47;1.80;;;17.30;95.20;;;;;;5031071;28;20037;-66
2021/05/26 06:53:58;;;;;;;4.18;1.73;;;17.30;95.30;;;;;;5031361;28;20036;-66
2021/05/26 06:56:23;;;;;;;4.07;1.55;;;17.30;95.30;;;;;;5030974;28;20359;-66
2021/05/26 06:58:49;;;;;;;3.25;1.90;;;17.30;95.20;;;;;;5031002;28;20241;-67
2021/05/26 07:01:14;;;;;;;2.78;1.67;;;17.30;95.40;;;;;;5031311;28;20022;-66
2021/05/26 07:03:40;;;;;;;3.55;1.90;;;17.30;95.50;;;;;;5030144;28;20433;-66
2021/05/26 07:06:06;;;;;;;3.47;1.73;;;17.50;95.30;;;;;;5031163;28;20025;-65
2021/05/26 07:08:31;;;;;;;4.07;2.20;;;17.60;95.10;;;;;;5030590;28;20083;-65
2021/05/26 07:10:57;;;;;;;3.90;1.80;;;17.80;95.00;;;;;;5030092;28;20029;-64
2021/05/26 07:13:23;;;;;;;3.40;1.73;;;17.80;94.90;;;;;;5030310;28;20140;-65
2021/05/26 07:15:48;;;;;;;4.32;2.08;;;17.80;94.90;;;;;;5030760;28;20029;-65
2021/05/26 07:18:14;;;;;;;4.20;2.10;;;17.80;95.00;;;;;;5030570;28;20029;-64
2021/05/26 07:20:43;;;;;;;4.43;1.70;;;17.90;95.00;;;;;;5030614;28;20029;-66
2021/05/26 07:23:09;;;;;;;3.50;2.10;;;17.90;95.00;;;;;;5031096;28;20044;-65
2021/05/26 07:25:35;;;;;;;4.05;1.90;;;17.90;94.90;;;;;;5030632;28;20033;-63
2021/05/26 07:28:02;;;;;;;3.20;1.80;;;18.10;94.80;;;;;;5034303;28;20025;-65
2021/05/26 07:30:27;;;;;;;4.38;2.20;;;18.10;94.80;;;;;;5034828;28;20040;-66
2021/05/26 07:32:53;;;;;;;3.75;1.88;;;18.10;94.90;;;;;;5034981;28;20112;-66
2021/05/26 07:35:19;;;;;;;3.60;1.70;;;18.10;94.80;;;;;;5034690;28;20033;-66
2021/05/26 07:37:44;;;;;;;4.47;1.83;;;18.30;94.80;;;;;;5035130;28;20029;-64
2021/05/26 07:40:11;;;;;;;3.33;1.92;;;18.50;94.50;;;;;;5034493;28;20060;-64
2021/05/26 07:42:37;;;;;;;4.10;2.25;;;18.50;94.40;;;;;;5033835;28;20040;-65
2021/05/26 07:45:04;;;;;;;3.75;2.22;;;18.60;94.40;;;;;;5034373;28;20033;-64
2021/05/26 07:47:30;;;;;;;4.82;2.10;;;18.60;94.20;;;;;;5034348;28;20040;-63
2021/05/26 07:49:56;;;;;;;2.47;1.95;;;18.70;94.20;;;;;;5034908;28;20029;-65
2021/05/26 07:52:21;;;;;;;4.65;1.80;;;18.90;94.10;;;;;;5034699;28;20474;-65
2021/05/26 07:54:51;;;;;;;4.57;2.30;;;19.10;93.90;;;;;;5034834;28;20020;-64
2021/05/26 07:57:17;;;;;;;3.05;1.90;;;19.20;94.10;;;;;;5033679;28;20033;-64
2021/05/26 07:59:44;;;;;;;4.40;2.00;;;19.30;93.60;;;;;;5033995;28;20068;-63
2021/05/26 08:02:13;;;;;;;5.60;2.40;;;19.40;93.90;;;;;;5034106;28;20393;-64
2021/05/26 08:04:39;;;;;;;4.35;2.40;;;19.40;93.30;;;;;;5034537;28;20079;-64
2021/05/26 08:07:06;;;;;;;4.82;2.58;;;19.60;93.40;;;;;;5034038;28;20120;-64
2021/05/26 08:09:32;;;;;;;3.88;2.60;;;19.50;93.40;;;;;;5034382;28;20034;-65
2021/05/26 08:11:58;;;;;;;4.55;2.80;;;19.40;93.40;;;;;;5034564;28;20052;-65
2021/05/26 08:14:23;;;;;;;3.88;2.53;;;19.60;93.30;;;;;;5033770;28;20029;-65
2021/05/26 08:16:50;;;;;;;6.15;2.80;;;19.50;93.20;;;;;;5034047;28;20718;-64
2021/05/26 08:19:16;;;;;;;4.82;2.78;;;19.40;93.40;;;;;;5034183;28;20033;-65
2021/05/26 08:21:42;;;;;;;4.75;3.20;;;19.30;93.70;;;;;;5034222;28;20028;-66
2021/05/26 08:24:09;;;;;;;4.75;2.80;;;19.20;93.80;;;;;;5033807;28;20045;-65
2021/05/26 08:26:35;;;;;;;5.32;2.70;;;19.20;93.80;;;;;;5033712;28;20029;-66
2021/05/26 08:29:03;;;;;;;4.70;2.78;;;19.30;93.60;;;;;;5030236;28;20091;-65
2021/05/26 08:31:30;;;;;;;3.22;2.20;;;19.50;93.40;;;;;;5033995;28;20091;-65
2021/05/26 08:33:56;;;;;;;5.95;2.45;;;19.50;93.30;;;;;;5034237;28;20029;-65
2021/05/26 08:36:22;;;;;;;4.80;2.28;;;19.60;93.30;;;;;;5033724;28;20493;-67
2021/05/26 08:38:47;;;;;;;4.07;1.70;;;19.70;93.30;;;;;;5032728;28;20033;-67
2021/05/26 08:41:15;;;;;;;5.63;1.75;;;20.00;93.20;;;;;;5033657;28;20024;-67
2021/05/26 08:43:41;;;;;;;2.22;1.50;;;20.20;93.10;;;;;;5033355;28;20038;-67
2021/05/26 08:46:08;;;;;;;3.78;1.58;;;20.40;92.50;;;;;;5033514;28;20030;-67
2021/05/26 08:48:35;;;;;;;4.00;1.45;;;20.40;92.50;;;;;;5033642;28;20029;-65
2021/05/26 08:51:02;;;;;;;2.83;1.48;;;20.80;92.50;;;;;;5033171;28;20370;-67
2021/05/26 08:53:28;;;;;;;3.72;1.40;;;20.80;92.40;;;;;;5033718;28;20032;-66
2021/05/26 08:55:54;;;;;;;1.75;1.00;;;20.80;92.50;;;;;;5033557;28;20096;-67
2021/05/26 08:58:21;;;;;;;3.10;1.30;;;21.10;92.60;;;;;;5033016;28;20440;-67
2021/05/26 09:00:48;;;;;;;3.70;1.30;;;21.00;92.30;;;;;;5033067;28;20095;-66
2021/05/26 09:03:14;;;;;;;2.55;1.20;;;21.00;92.30;;;;;;5033337;28;20121;-67
2021/05/26 09:05:40;;;;;;;2.55;0.98;;;21.10;92.30;;;;;;5033225;28;20060;-66
2021/05/26 09:08:20;;;;;;;2.58;1.10;;;21.20;92.40;;;;;;5032930;28;20508;-66
2021/05/26 09:10:47;;;;;;;3.00;1.05;;;21.20;92.20;;;;;;5033234;28;20026;-67
2021/05/26 09:13:36;;;;;;;2.35;0.88;;;21.40;92.40;;;;;;5032363;28;20037;-66
2021/05/26 09:16:28;;;;;;;2.20;1.00;;;21.40;92.00;;;;;;5032778;28;20029;-66
2021/05/26 09:19:02;;;;;;;1.40;0.85;;;21.40;91.90;;;;;;5033011;28;20022;-66
2021/05/26 09:21:42;;;;;;;2.85;1.10;;;21.30;92.20;;;;;;5033244;28;20021;-66
2021/05/26 09:24:28;;;;;;;1.33;0.70;;;21.30;92.10;;;;;;5032981;28;20045;-66
2021/05/26 09:27:00;;;;;;;1.85;0.95;;;21.30;92.30;;;;;;5032307;28;20022;-66
2021/05/26 09:29:41;;;;;;;4.47;0.83;;;21.50;92.30;;;;;;5032566;28;20621;-66
2021/05/26 09:32:21;;;;;;;3.97;0.73;;;21.60;92.50;;;;;;5032887;28;20025;-66
2021/05/26 09:35:06;;;;;;;5.72;0.95;;;21.60;92.20;;;;;;5033003;28;20029;-67
2021/05/26 09:37:37;;;;;;;2.20;0.60;;;21.60;92.20;;;;;;5032469;28;20030;-66
2021/05/26 09:40:06;;;;;;;1.10;0.70;;;21.80;92.20;;;;;;5032468;28;20045;-66
2021/05/26 09:42:35;;;;;;;1.80;0.75;;;21.70;91.90;;;;;;5032248;28;20037;-65
2021/05/26 09:45:09;;;;;;;2.38;0.95;;;21.70;91.80;;;;;;5033074;28;20049;-65
2021/05/26 09:47:37;;;;;;;1.83;0.60;;;21.60;92.00;;;;;;5031111;28;20515;-65
2021/05/26 09:50:30;;;;;;;2.30;0.90;;;21.60;92.00;;;;;;5032559;28;20025;-65
2021/05/26 09:52:58;;;;;;;2.40;1.00;;;21.70;92.20;;;;;;5032108;28;20436;-65
2021/05/26 09:55:45;;;;;;;2.63;0.77;;;21.80;92.40;;;;;;5032490;28;20048;-66
2021/05/26 09:58:13;;;;;;;1.85;0.90;;;21.80;92.00;;;;;;5031012;28;20045;-66
2021/05/26 10:00:42;;;;;;;2.15;0.80;;;21.80;92.00;;;;;;5031967;28;20033;-65
2021/05/26 10:03:08;;;;;;;2.17;0.65;;;21.70;92.00;;;;;;5031874;28;20042;-65
2021/05/26 10:05:34;;;;;;;3.63;0.70;;;21.70;92.00;;;;;;5032345;28;20105;-65
2021/05/26 10:08:06;;;;;;;1.90;0.90;;;21.70;92.10;;;;;;5032631;28;20401;-65
2021/05/26 10:10:32;;;;;;;1.95;0.70;;;21.60;92.00;;;;;;5032294;28;20022;-65
2021/05/26 10:13:05;;;;;;;3.65;0.95;;;21.60;92.00;;;;;;5031986;28;20025;-65
2021/05/26 10:15:33;;;;;;;2.53;0.80;;;21.60;91.80;;;;;;5031845;28;20538;-64
2021/05/26 10:18:01;;;;;;;2.45;0.70;;;21.60;91.90;;;;;;5032334;28;20069;-65
2021/05/26 10:20:29;;;;;;;1.73;0.70;;;21.80;92.20;;;;;;5032079;28;20034;-65
2021/05/26 10:22:57;;;;;;;1.42;0.70;;;21.90;91.60;;;;;;5031373;28;20037;-65
2021/05/26 10:25:23;;;;;;;3.10;0.63;;;21.80;91.20;;;;;;5031445;28;20049;-65
2021/05/26 10:27:56;;;;;;;4.10;0.73;;;21.80;91.40;;;;;;5031629;28;20424;-65
2021/05/26 10:30:26;;;;;;;2.92;1.00;;;21.80;91.40;;;;;;5030986;28;20482;-66
2021/05/26 10:32:55;;;;;;;4.07;1.00;;;21.80;91.40;;;;;;5031460;28;20120;-66
2021/05/26 10:35:25;;;;;;;2.33;0.70;;;21.80;91.60;;;;;;5030922;28;20036;-66
2021/05/26 10:38:06;;;;;;;1.63;0.60;;;21.80;91.60;;;;;;5031441;28;20025;-66
2021/05/26 10:40:37;;;;;;;4.38;0.80;;;21.80;91.60;;;;;;5032149;28;20030;-66
2021/05/26 10:43:15;;;;;;;4.07;1.52;;;21.80;91.50;;;;;;5031286;28;20037;-70
2021/05/26 10:45:40;;;;;;;4.82;1.42;;;21.60;87.50;;;;;;5029876;28;20033;-64
2021/05/26 10:48:06;;;;;;;5.07;1.20;;;21.40;89.00;;;;;;5030635;28;20031;-63
2021/05/26 10:50:44;;;;;;;3.13;1.13;;;21.10;88.80;;;;;;5029683;28;20055;-73
2021/05/26 10:53:10;;;;;;;3.03;1.15;;;20.90;88.80;;;;;;5028305;28;20065;-66
2021/05/26 10:55:38;;;;;;;4.28;1.20;;;21.00;89.30;;;;;;5029875;28;20083;-65
2021/05/26 10:58:13;;;;;;;6.63;1.25;;;20.90;89.40;;;;;;5029787;28;20025;-67
2021/05/26 11:00:48;;;;;;;3.80;1.23;;;20.80;90.00;;;;;;5029519;28;20045;-63
2021/05/26 11:03:27;;;;;;;3.35;1.20;;;21.00;90.10;;;;;;5029042;28;20041;-62
2021/05/26 11:06:03;;;;;;;3.45;1.00;;;21.00;90.30;;;;;;5029050;28;20079;-64
2021/05/26 11:08:28;;;;;;;2.15;1.00;;;21.10;90.30;;;;;;5028684;28;20156;-66
2021/05/26 11:10:54;;;;;;;3.58;1.30;;;21.10;90.40;;;;;;5029951;28;20487;-64
2021/05/26 11:13:20;;;;;;;2.50;0.98;;;21.10;90.60;;;;;;5029946;28;20052;-64
2021/05/26 11:15:47;;;;;;;2.45;0.90;;;21.10;91.10;;;;;;5030357;28;20030;-64
2021/05/26 11:18:41;;;;;;;2.72;0.90;;;21.10;90.80;;;;;;5030596;28;20030;-63
2021/05/26 11:21:15;;;;;;;2.67;0.90;;;21.10;90.80;;;;;;5028652;28;20072;-63
2021/05/26 11:23:40;;;;;;;2.15;0.70;;;21.10;90.90;;;;;;5028570;28;20520;-63
2021/05/26 11:26:06;;;;;;;2.67;1.08;;;21.10;91.00;;;;;;5030006;28;20029;-63
2021/05/26 11:28:35;;;;;;;2.40;1.30;;;21.10;91.20;;;;;;5029184;28;20442;-63
2021/05/26 11:31:04;;;;;;;3.30;1.40;;;21.00;91.20;;;;;;5030104;28;20024;-63
2021/05/26 11:33:31;;;;;;;3.35;1.23;;;20.90;91.20;;;;;;5029439;28;20037;-63
2021/05/26 11:36:04;;;;;;;3.38;0.95;;;20.90;91.10;;;;;;5029771;28;20416;-63
2021/05/26 11:38:31;;;;;;;3.22;1.02;;;21.00;91.20;;;;;;5030110;28;20091;-63
2021/05/26 11:40:58;;;;;;;2.38;1.00;;;21.10;91.10;;;;;;5030307;28;20037;-63
2021/05/26 11:43:24;;;;;;;2.60;1.00;;;21.10;91.20;;;;;;5029488;28;20041;-63
2021/05/26 11:46:10;;;;;;;3.00;1.00;;;21.10;91.20;;;;;;5029344;28;20029;-63
2021/05/26 11:48:36;;;;;;;1.90;0.80;;;21.00;91.30;;;;;;5028294;28;20034;-63
2021/05/26 11:51:03;;;;;;;4.10;1.25;;;21.00;91.40;;;;;;5029672;28;20029;-63
2021/05/26 11:53:29;;;;;;;2.92;1.08;;;21.00;91.50;;;;;;5029585;28;20017;-63
2021/05/26 11:56:00;;;;;;;7.25;1.73;;;21.00;91.30;;;;;;5029092;28;20029;-63
2021/05/26 11:58:35;;;;;;;4.13;1.90;;;21.10;92.30;;;;;;5027466;28;20037;-63
2021/05/26 12:01:03;;;;;;;5.25;1.92;;;21.30;92.70;;;;;;5029598;28;20108;-64
2021/05/26 12:03:30;;;;;;;4.32;1.70;;;21.40;92.90;;;;;;5028804;28;20057;-62
2021/05/26 12:05:56;;;;;;;4.68;1.60;;;21.50;93.30;;;;;;5028325;28;20801;-63
2021/05/26 12:08:22;;;;;;;5.45;1.50;;;21.60;93.20;;;;;;5029166;28;20030;-66
2021/05/26 12:10:55;;;;;;;5.55;1.75;;;21.70;93.30;;;;;;5029838;28;20397;-63
2021/05/26 12:13:29;;;;;;;3.90;1.38;;;21.70;93.00;;;;;;5030926;28;20040;-65
2021/05/26 12:15:56;;;;;;;4.10;1.65;;;21.70;92.80;;;;;;5034323;28;20030;-63
2021/05/26 12:18:22;;;;;;;5.03;1.50;;;21.60;93.10;;;;;;5033903;28;20024;-63
2021/05/26 12:20:52;;;;;;;5.63;1.83;;;21.70;92.90;;;;;;5031697;28;20500;-62
2021/05/26 12:23:39;;;;;;;4.68;1.83;;;21.70;92.90;;;;;;5034068;28;20061;-62
2021/05/26 12:26:23;;;;;;;4.07;1.65;;;21.60;92.90;;;;;;5044262;28;20025;-62
2021/05/26 12:28:49;;;;;;;5.30;2.05;;;21.70;92.90;;;;;;5045366;28;20030;-63
2021/05/26 12:31:17;;;;;;;5.55;1.38;;;21.70;92.80;;;;;;5033767;28;20120;-63
2021/05/26 12:33:51;;;;;;;4.32;1.42;;;21.70;92.50;;;;;;5034187;28;20063;-63
2021/05/26 12:36:16;;;;;;;;;;;21.60;92.60;;;;;;5034166;28;20373;-64
2021/05/26 12:38:44;;;;;;;4.38;1.30;;;21.60;92.40;;;;;;5033726;28;19909;-63
2021/05/26 12:41:19;;;;;;;3.90;1.35;;;21.60;93.10;;;;;;5033525;28;20048;-63
2021/05/26 12:43:45;;;;;;;4.97;1.30;;;21.50;92.60;;;;;;5033875;28;20033;-63
2021/05/26 12:46:10;;;;;;;2.92;1.10;;;21.40;92.70;;;;;;5033338;28;20021;-63
2021/05/26 12:48:36;;;;;;;3.55;1.05;;;21.40;92.90;;;;;;5033583;28;20417;-64
2021/05/26 12:51:02;;;;;;;3.58;1.50;;;21.30;93.40;;;;;;5033273;28;20550;-64
2021/05/26 12:53:32;;;;;;;4.43;1.55;;;21.20;93.30;;;;;;5033481;28;20097;-63